createdAt,value
2018-06-28T00:01:00.060Z,2.10
2018-06-28T00:03:27.010Z,2.40
2018-06-28T00:05:53.978Z,2.10
2018-06-28T00:08:20.948Z,2.30
2018-06-28T00:10:47.875Z,2.00
2018-06-28T00:13:15.870Z,1.90
2018-06-28T00:15:42.844Z,2.20
2018-06-28T00:18:09.802Z,2.07
2018-06-28T00:20:36.726Z,2.07
2018-06-28T00:23:03.654Z,2.23
2018-06-28T00:25:30.614Z,1.80
2018-06-28T00:27:57.509Z,2.23
2018-06-28T00:30:24.469Z,2.00
2018-06-28T00:32:53.323Z,2.00
2018-06-28T00:35:20.235Z,2.00
2018-06-28T00:37:47.258Z,2.10
2018-06-28T00:40:15.683Z,2.33
2018-06-28T00:42:43.691Z,2.50
2018-06-28T00:45:11.255Z,2.60
2018-06-28T00:47:38.170Z,2.67
2018-06-28T00:50:05.230Z,2.30
2018-06-28T00:52:32.193Z,1.83
2018-06-28T00:54:59.162Z,1.90
2018-06-28T00:57:26.094Z,2.20
2018-06-28T00:59:53.083Z,2.10
2018-06-28T01:02:20.031Z,2.50
2018-06-28T01:04:47.011Z,2.20
2018-06-28T01:07:13.902Z,1.90
2018-06-28T01:09:41.714Z,2.30
2018-06-28T01:12:08.670Z,2.30
2018-06-28T01:14:35.631Z,2.20
2018-06-28T01:17:02.599Z,2.90
2018-06-28T01:19:29.534Z,2.90
2018-06-28T01:21:56.499Z,2.60
2018-06-28T01:24:23.465Z,3.10
2018-06-28T01:26:50.423Z,2.60
2018-06-28T01:29:17.391Z,2.80
2018-06-28T01:31:44.347Z,2.90
2018-06-28T01:34:11.302Z,2.40
2018-06-28T01:36:38.238Z,2.80
2018-06-28T01:39:08.119Z,2.93
2018-06-28T01:41:47.318Z,3.20
2018-06-28T01:44:15.197Z,3.00
2018-06-28T01:46:42.255Z,3.17
2018-06-28T01:49:09.110Z,2.97
2018-06-28T01:51:36.687Z,2.80
2018-06-28T01:54:03.654Z,3.07
2018-06-28T01:56:30.595Z,3.50
2018-06-28T01:58:59.222Z,3.10
2018-06-28T02:01:26.155Z,3.70
2018-06-28T02:03:56.999Z,3.10
2018-06-28T02:06:25.758Z,3.60
2018-06-28T02:08:52.680Z,4.10
2018-06-28T02:11:20.638Z,3.70
2018-06-28T02:13:49.268Z,3.77
2018-06-28T02:16:17.251Z,4.13
2018-06-28T02:18:44.696Z,3.87
2018-06-28T02:21:12.674Z,4.40
2018-06-28T02:23:41.225Z,4.63
2018-06-28T02:26:08.738Z,4.63
2018-06-28T02:28:36.214Z,4.47
2018-06-28T02:31:06.185Z,4.70
2018-06-28T02:33:33.048Z,4.40
2018-06-28T02:35:59.934Z,4.40
2018-06-28T02:38:28.750Z,4.87
2018-06-28T02:40:57.263Z,4.90
2018-06-28T02:43:24.213Z,5.10
2018-06-28T02:45:53.729Z,5.17
2018-06-28T02:48:21.722Z,4.83
2018-06-28T02:50:48.707Z,4.40
2018-06-28T02:53:15.626Z,4.93
2018-06-28T02:55:42.535Z,6.97
2018-06-28T02:58:10.442Z,5.40
2018-06-28T03:00:38.236Z,5.50
2018-06-28T03:03:05.179Z,5.90
2018-06-28T03:05:32.719Z,6.03
2018-06-28T03:07:59.606Z,5.60
2018-06-28T03:10:26.580Z,5.73
2018-06-28T03:12:55.275Z,5.60
2018-06-28T03:15:22.234Z,6.10
2018-06-28T03:17:49.166Z,5.80
2018-06-28T03:20:16.746Z,5.70
2018-06-28T03:22:44.750Z,6.20
2018-06-28T03:25:11.698Z,5.67
2018-06-28T03:27:39.250Z,6.13
2018-06-28T03:30:06.401Z,5.53
2018-06-28T03:32:36.353Z,6.03
2018-06-28T03:35:08.330Z,5.57
2018-06-28T03:37:35.826Z,5.90
2018-06-28T03:40:04.740Z,5.57
2018-06-28T03:42:32.281Z,6.37
2018-06-28T03:44:59.227Z,6.03
2018-06-28T03:47:26.803Z,5.33
2018-06-28T03:49:53.762Z,5.60
2018-06-28T03:52:21.256Z,4.73
2018-06-28T03:54:49.291Z,4.93
2018-06-28T03:57:17.827Z,4.40
2018-06-28T03:59:45.830Z,4.43
2018-06-28T04:02:12.734Z,4.13
2018-06-28T04:04:40.319Z,4.53
2018-06-28T04:07:11.339Z,4.00
2018-06-28T04:09:38.244Z,4.00
2018-06-28T04:12:05.226Z,3.33
2018-06-28T04:14:32.786Z,3.70
2018-06-28T04:17:00.333Z,4.00
2018-06-28T04:19:44.712Z,4.00
2018-06-28T04:22:21.272Z,3.50
2018-06-28T04:24:48.250Z,3.30
2018-06-28T04:27:16.842Z,4.07
2018-06-28T04:29:43.799Z,3.63
2018-06-28T04:32:12.807Z,3.20
2018-06-28T04:34:40.278Z,3.40
2018-06-28T04:37:07.238Z,2.73
2018-06-28T04:39:35.828Z,3.50
2018-06-28T04:42:02.774Z,3.13
2018-06-28T04:44:29.703Z,2.97
2018-06-28T04:46:57.321Z,3.13
2018-06-28T04:49:25.305Z,2.70
2018-06-28T04:51:52.914Z,2.70
2018-06-28T04:54:19.811Z,2.97
2018-06-28T04:56:46.761Z,2.90
2018-06-28T04:59:14.776Z,2.93
2018-06-28T05:01:46.111Z,3.30
2018-06-28T05:04:13.779Z,2.50
2018-06-28T05:06:41.791Z,2.73
2018-06-28T05:09:10.222Z,2.47
2018-06-28T05:11:37.875Z,2.90
2018-06-28T05:14:07.274Z,3.43
2018-06-28T05:16:34.218Z,3.40
2018-06-28T05:19:01.184Z,3.37
2018-06-28T05:21:28.134Z,3.30
2018-06-28T05:23:56.114Z,3.33
2018-06-28T05:26:23.467Z,3.70
2018-06-28T05:28:51.334Z,3.67
2018-06-28T05:31:18.830Z,3.83
2018-06-28T05:33:45.796Z,3.90
2018-06-28T05:36:12.730Z,3.10
2018-06-28T05:38:40.278Z,3.13
2018-06-28T05:41:07.291Z,4.00
2018-06-28T05:43:34.278Z,3.57
2018-06-28T05:46:01.884Z,3.70
2018-06-28T05:48:28.719Z,3.33
2018-06-28T05:50:56.451Z,3.70
2018-06-28T05:53:23.462Z,3.20
2018-06-28T05:55:50.311Z,3.80
2018-06-28T05:58:18.791Z,3.17
2018-06-28T06:00:45.699Z,3.30
2018-06-28T06:03:13.710Z,3.23
2018-06-28T06:05:42.499Z,3.63
2018-06-28T06:08:09.394Z,3.17
2018-06-28T06:10:36.258Z,3.63
2018-06-28T06:13:03.286Z,3.43
2018-06-28T06:15:30.851Z,3.63
2018-06-28T06:17:58.360Z,3.50
2018-06-28T06:20:26.931Z,3.30
2018-06-28T06:22:54.351Z,3.17
2018-06-28T06:25:21.326Z,2.90
2018-06-28T06:27:48.242Z,3.73
2018-06-28T06:30:15.886Z,3.40
2018-06-28T06:32:43.419Z,4.23
2018-06-28T06:35:10.916Z,3.20
2018-06-28T06:37:37.867Z,3.40
2018-06-28T06:40:05.848Z,3.10
2018-06-28T06:42:37.390Z,3.23
2018-06-28T06:45:06.070Z,3.47
2018-06-28T06:47:33.866Z,3.30
2018-06-28T06:50:01.430Z,3.43
2018-06-28T06:52:28.886Z,3.40
2018-06-28T06:54:55.860Z,3.27
2018-06-28T06:57:24.451Z,5.10
2018-06-28T06:59:52.445Z,11.77
2018-06-28T07:02:19.410Z,3.40
2018-06-28T07:04:46.323Z,2.97
2018-06-28T07:07:14.827Z,3.50
2018-06-28T07:09:41.806Z,3.17
2018-06-28T07:12:09.362Z,3.60
2018-06-28T07:14:36.326Z,3.40
2018-06-28T07:17:04.339Z,3.40
2018-06-28T07:19:32.303Z,3.50
2018-06-28T07:21:59.278Z,3.58
2018-06-28T07:24:26.927Z,3.77
2018-06-28T07:26:53.839Z,3.50
2018-06-28T07:29:20.799Z,2.63
2018-06-28T07:31:48.411Z,3.23
2018-06-28T07:34:15.472Z,3.27
2018-06-28T07:36:42.398Z,3.67
2018-06-28T07:39:11.271Z,4.07
2018-06-28T07:41:38.335Z,3.30
2018-06-28T07:44:06.070Z,3.53
2018-06-28T07:46:34.043Z,2.77
2018-06-28T07:49:01.741Z,3.70
2018-06-28T07:51:28.678Z,3.77
2018-06-28T07:53:55.622Z,3.17
2018-06-28T07:56:23.410Z,3.03
2018-06-28T07:58:50.334Z,3.70
2018-06-28T08:01:18.967Z,3.00
2018-06-28T08:03:45.996Z,3.40
2018-06-28T08:06:12.987Z,2.77
2018-06-28T08:08:39.973Z,2.80
2018-06-28T08:11:06.752Z,2.80
2018-06-28T08:13:33.618Z,3.23
2018-06-28T08:16:00.618Z,3.30
2018-06-28T08:18:27.575Z,2.93
2018-06-28T08:20:54.554Z,3.17
2018-06-28T08:23:24.559Z,3.50
2018-06-28T08:25:51.507Z,3.07
2018-06-28T08:28:21.831Z,3.30
2018-06-28T08:30:48.681Z,2.87
2018-06-28T08:33:16.446Z,3.17
2018-06-28T08:35:43.492Z,2.87
2018-06-28T08:38:11.012Z,3.23
2018-06-28T08:40:38.990Z,2.93
2018-06-28T08:43:06.186Z,2.93
2018-06-28T08:45:33.115Z,3.10
2018-06-28T08:48:00.991Z,3.10
2018-06-28T08:50:27.954Z,3.50
2018-06-28T08:52:56.468Z,3.20
2018-06-28T08:55:23.442Z,3.23
2018-06-28T08:57:50.417Z,2.70
2018-06-28T09:00:17.311Z,3.30
2018-06-28T09:02:44.293Z,3.30
2018-06-28T09:05:11.986Z,3.70
2018-06-28T09:07:38.898Z,2.77
2018-06-28T09:10:06.486Z,3.13
2018-06-28T09:12:33.402Z,3.07
2018-06-28T09:15:01.007Z,3.00
2018-06-28T09:17:28.587Z,3.13
2018-06-28T09:19:55.541Z,2.97
2018-06-28T09:22:22.482Z,3.03
2018-06-28T09:24:49.422Z,3.00
2018-06-28T09:27:16.398Z,2.63
2018-06-28T09:29:43.351Z,2.93
2018-06-28T09:32:10.318Z,3.07
2018-06-28T09:34:37.257Z,3.03
2018-06-28T09:37:04.398Z,2.70
2018-06-28T09:39:31.363Z,2.70
2018-06-28T09:41:58.350Z,2.87
2018-06-28T09:44:25.313Z,3.10
2018-06-28T09:46:52.258Z,3.10
2018-06-28T09:49:19.229Z,2.87
2018-06-28T09:51:46.175Z,3.00
2018-06-28T09:54:13.944Z,2.87
2018-06-28T09:56:40.922Z,2.80
2018-06-28T09:59:07.838Z,2.80
2018-06-28T10:01:34.834Z,2.87
2018-06-28T10:04:01.790Z,2.65
2018-06-28T10:06:28.738Z,2.90
2018-06-28T10:08:55.708Z,3.00
2018-06-28T10:11:23.227Z,2.70
2018-06-28T10:13:50.123Z,2.63
2018-06-28T10:16:17.131Z,3.17
2018-06-28T10:18:44.046Z,2.73
2018-06-28T10:21:11.001Z,3.13
2018-06-28T10:23:38.970Z,2.57
2018-06-28T10:26:05.942Z,2.90
2018-06-28T10:28:32.866Z,2.83
2018-06-28T10:30:59.858Z,2.50
2018-06-28T10:33:26.822Z,3.40
2018-06-28T10:35:53.769Z,3.03
2018-06-28T10:38:20.731Z,3.03
2018-06-28T10:40:47.699Z,2.83
2018-06-28T10:43:14.686Z,2.20
2018-06-28T10:45:41.610Z,2.70
2018-06-28T10:48:08.550Z,2.20
2018-06-28T10:50:35.513Z,2.27
2018-06-28T10:53:02.359Z,2.40
2018-06-28T10:55:29.225Z,2.33
2018-06-28T10:57:56.191Z,2.43
2018-06-28T11:00:23.147Z,2.43
2018-06-28T11:02:50.110Z,2.00
2018-06-28T11:05:17.014Z,2.67
2018-06-28T11:07:43.906Z,2.60
2018-06-28T11:10:10.870Z,2.30
2018-06-28T11:12:38.858Z,2.40
2018-06-28T11:15:05.802Z,2.50
2018-06-28T11:17:32.760Z,2.20
2018-06-28T11:20:00.637Z,2.53
2018-06-28T11:22:27.602Z,2.67
2018-06-28T11:24:55.646Z,2.10
2018-06-28T11:27:22.534Z,2.47
2018-06-28T11:29:49.582Z,2.60
2018-06-28T11:32:16.541Z,2.20
2018-06-28T11:34:44.010Z,2.97
2018-06-28T11:37:11.015Z,2.70
2018-06-28T11:39:37.963Z,2.40
2018-06-28T11:42:04.894Z,2.23
2018-06-28T11:44:31.948Z,2.50
2018-06-28T11:46:59.122Z,2.53
2018-06-28T11:49:26.054Z,2.37
2018-06-28T11:51:53.479Z,2.67
2018-06-28T11:54:20.415Z,2.60
2018-06-28T11:56:47.382Z,2.50
2018-06-28T11:59:14.282Z,2.63
2018-06-28T12:01:41.278Z,2.50
2018-06-28T12:04:09.055Z,2.20
2018-06-28T12:06:36.062Z,2.40
2018-06-28T12:09:06.392Z,2.50
2018-06-28T12:11:33.293Z,2.43
2018-06-28T12:14:00.254Z,2.50
2018-06-28T12:16:27.276Z,2.50
2018-06-28T12:18:54.352Z,2.40
2018-06-28T12:21:22.045Z,2.50
2018-06-28T12:23:49.010Z,2.60
2018-06-28T12:26:15.970Z,2.20
2018-06-28T12:31:12.446Z,2.33
2018-06-28T12:33:39.414Z,2.10
2018-06-28T12:36:06.366Z,2.43
2018-06-28T12:38:33.365Z,2.33
2018-06-28T12:41:00.286Z,2.70
2018-06-28T12:43:29.167Z,2.77
2018-06-28T12:45:56.955Z,2.20
2018-06-28T12:48:24.938Z,2.80
2018-06-28T12:50:52.625Z,2.67
2018-06-28T12:53:19.542Z,2.90
2018-06-28T12:56:14.466Z,2.80
2018-06-28T12:58:42.485Z,3.13
2018-06-28T13:01:09.435Z,2.70
2018-06-28T13:03:36.413Z,2.70
2018-06-28T13:06:03.633Z,2.60
2018-06-28T13:08:30.590Z,2.70
2018-06-28T13:10:57.590Z,3.83
2018-06-28T13:13:25.148Z,2.60
2018-06-28T13:15:52.598Z,2.83
2018-06-28T13:18:20.478Z,2.40
2018-06-28T13:20:49.871Z,2.50
2018-06-28T13:23:17.126Z,2.83
2018-06-28T13:25:44.630Z,2.80
2018-06-28T13:28:13.324Z,2.40
2018-06-28T13:30:39.956Z,2.90
2018-06-28T13:33:06.945Z,2.43
2018-06-28T13:35:33.959Z,2.43
2018-06-28T13:38:02.174Z,2.10
2018-06-28T13:40:29.276Z,2.63
2018-06-28T13:42:57.158Z,2.67
2018-06-28T13:45:25.211Z,2.60
2018-06-28T13:47:54.149Z,2.47
2018-06-28T13:50:21.074Z,2.60
2018-06-28T13:52:48.246Z,2.70
2018-06-28T13:55:17.647Z,2.63
2018-06-28T13:57:44.718Z,2.20
2018-06-28T14:00:11.580Z,2.30
2018-06-28T14:02:38.482Z,2.77
2018-06-28T14:05:06.569Z,2.70
2018-06-28T14:07:34.241Z,2.97
2018-06-28T14:10:02.240Z,2.40
2018-06-28T14:12:29.326Z,2.70
2018-06-28T14:14:56.331Z,2.70
2018-06-28T14:17:24.353Z,2.30
2018-06-28T14:19:51.464Z,2.60
2018-06-28T14:22:18.404Z,2.50
2018-06-28T14:24:45.302Z,2.50
2018-06-28T14:27:12.266Z,2.33
2018-06-28T14:29:39.248Z,2.40
2018-06-28T14:32:06.238Z,2.50
2018-06-28T14:34:33.240Z,2.40
2018-06-28T14:37:00.210Z,2.53
2018-06-28T14:39:27.152Z,2.57
2018-06-28T14:41:54.166Z,2.67
2018-06-28T14:44:21.134Z,2.57
2018-06-28T14:46:48.113Z,2.40
2018-06-28T14:49:15.098Z,2.70
2018-06-28T14:51:42.178Z,2.30
2018-06-28T14:54:09.107Z,2.73
2018-06-28T14:56:36.170Z,2.57
2018-06-28T14:59:03.122Z,2.30
2018-06-28T15:01:30.079Z,2.60
2018-06-28T15:03:58.062Z,2.80
2018-06-28T15:06:25.096Z,2.30
2018-06-28T15:08:52.074Z,2.70
2018-06-28T15:11:19.114Z,2.40
2018-06-28T15:13:46.631Z,2.33
2018-06-28T15:16:13.619Z,2.40
2018-06-28T15:18:40.623Z,2.50
2018-06-28T15:21:07.555Z,2.80
2018-06-28T15:23:34.485Z,2.70
2018-06-28T15:26:02.480Z,2.77
2018-06-28T15:28:29.483Z,3.30
2018-06-28T15:30:56.703Z,3.17
2018-06-28T15:33:24.807Z,2.67
2018-06-28T15:35:51.573Z,2.73
2018-06-28T15:38:18.589Z,2.80
2018-06-28T15:40:46.540Z,2.40
2018-06-28T15:43:13.490Z,2.73
2018-06-28T15:45:40.492Z,2.20
2018-06-28T15:48:07.395Z,2.63
2018-06-28T15:50:34.454Z,2.70
2018-06-28T15:53:01.427Z,2.20
2018-06-28T15:55:30.418Z,2.93
2018-06-28T15:57:59.220Z,2.60
2018-06-28T16:00:26.770Z,2.20
2018-06-28T16:02:53.806Z,2.37
2018-06-28T16:05:20.695Z,2.00
2018-06-28T16:07:47.666Z,2.60
2018-06-28T16:10:14.616Z,2.53
2018-06-28T16:12:41.611Z,2.60
2018-06-28T16:15:08.522Z,2.67
2018-06-28T16:17:38.854Z,2.20
2018-06-28T16:20:06.766Z,2.33
2018-06-28T16:22:33.762Z,2.70
2018-06-28T16:25:01.207Z,2.87
2018-06-28T16:27:28.762Z,2.37
2018-06-28T16:29:57.790Z,2.60
2018-06-28T16:32:24.726Z,2.23
2018-06-28T16:34:52.182Z,2.50
2018-06-28T16:37:19.114Z,2.40
2018-06-28T16:39:46.090Z,2.50
2018-06-28T16:42:13.046Z,2.30
2018-06-28T16:44:42.781Z,2.20
2018-06-28T16:47:09.702Z,2.27
2018-06-28T16:49:36.687Z,2.00
2018-06-28T16:52:03.640Z,2.20
2018-06-28T16:54:31.629Z,2.37
2018-06-28T16:57:01.579Z,2.17
2018-06-28T16:59:31.487Z,2.10
2018-06-28T17:01:58.370Z,2.10
2018-06-28T17:04:25.336Z,1.97
2018-06-28T17:06:52.251Z,2.13
2018-06-28T17:09:19.170Z,2.27
2018-06-28T17:11:46.074Z,2.00
2018-06-28T17:14:13.080Z,2.20
2018-06-28T17:16:39.981Z,2.17
2018-06-28T17:19:07.910Z,2.00
2018-06-28T17:21:35.010Z,2.43
2018-06-28T17:24:01.954Z,2.30
2018-06-28T17:26:28.927Z,2.40
2018-06-28T17:28:58.874Z,2.00
2018-06-28T17:31:25.786Z,2.23
2018-06-28T17:33:52.894Z,2.23
2018-06-28T17:36:19.838Z,2.13
2018-06-28T17:38:46.799Z,2.30
2018-06-28T17:41:13.758Z,2.30
2018-06-28T17:43:40.698Z,2.43
2018-06-28T17:46:07.670Z,2.03
2018-06-28T17:48:34.610Z,2.53
2018-06-28T17:51:01.649Z,2.30
2018-06-28T17:53:28.505Z,2.60
2018-06-28T17:55:55.512Z,2.10
2018-06-28T17:58:22.462Z,2.50
2018-06-28T18:00:49.440Z,2.10
2018-06-28T18:03:16.361Z,4.00
2018-06-28T18:05:47.895Z,3.27
2018-06-28T18:08:15.829Z,2.90
2018-06-28T18:10:46.823Z,3.33
2018-06-28T18:13:17.849Z,3.20
2018-06-28T18:15:45.887Z,3.70
2018-06-28T18:18:14.959Z,3.73
2018-06-28T18:20:43.895Z,3.33
2018-06-28T18:23:17.007Z,3.43
2018-06-28T18:25:44.008Z,3.70
2018-06-28T18:28:13.814Z,3.60
2018-06-28T18:30:45.281Z,2.83
2018-06-28T18:33:25.837Z,4.03
2018-06-28T18:35:54.854Z,3.40
2018-06-28T18:38:23.946Z,3.10
2018-06-28T18:40:52.755Z,2.90
2018-06-28T18:43:25.848Z,3.27
2018-06-28T18:45:52.819Z,3.30
2018-06-28T18:48:22.738Z,3.37
2018-06-28T18:50:53.194Z,3.77
2018-06-28T18:53:26.285Z,4.03
2018-06-28T18:56:00.290Z,3.90
2018-06-28T18:58:27.813Z,3.53
2018-06-28T19:00:54.731Z,4.07
2018-06-28T19:03:21.702Z,4.00
2018-06-28T19:05:58.322Z,3.97
2018-06-28T19:08:28.323Z,4.13
2018-06-28T19:11:08.678Z,4.37
2018-06-28T19:13:43.200Z,3.97
2018-06-28T19:16:15.900Z,4.33
2018-06-28T19:18:42.934Z,5.00
2018-06-28T19:21:15.657Z,4.40
2018-06-28T19:23:47.351Z,3.90
2018-06-28T19:26:14.902Z,3.67
2018-06-28T19:28:42.870Z,4.23
2018-06-28T19:31:15.958Z,4.17
2018-06-28T19:33:46.053Z,4.10
2018-06-28T19:36:18.639Z,4.10
2018-06-28T19:38:52.142Z,4.20
2018-06-28T19:41:25.982Z,3.90
2018-06-28T19:43:59.078Z,3.80
2018-06-28T19:46:28.842Z,4.07
2018-06-28T19:48:56.332Z,3.87
2018-06-28T19:51:32.123Z,4.63
2018-06-28T19:54:02.130Z,4.40
2018-06-28T19:56:30.107Z,4.00
2018-06-28T19:59:03.274Z,3.37
2018-06-28T20:01:38.003Z,4.10
2018-06-28T20:04:11.845Z,4.00
2018-06-28T20:06:40.039Z,3.80
2018-06-28T20:09:08.246Z,3.67
2018-06-28T20:11:35.154Z,3.90
2018-06-28T20:14:08.867Z,4.23
2018-06-28T20:16:45.634Z,4.30
2018-06-28T20:19:19.158Z,4.13
2018-06-28T20:21:46.065Z,3.80
2018-06-28T20:24:13.010Z,4.23
2018-06-28T20:26:48.602Z,3.80
2018-06-28T20:29:21.262Z,4.10
2018-06-28T20:31:53.907Z,4.20
2018-06-28T20:34:21.325Z,4.00
2018-06-28T20:36:54.166Z,3.90
2018-06-28T20:39:24.170Z,3.97
2018-06-28T20:41:52.834Z,4.10
2018-06-28T20:44:22.371Z,4.10
2018-06-28T20:46:49.330Z,4.70
2018-06-28T20:49:16.313Z,4.80
2018-06-28T20:51:44.873Z,4.13
2018-06-28T20:54:12.908Z,4.00
2018-06-28T20:56:40.342Z,4.23
2018-06-28T20:59:13.227Z,4.80
2018-06-28T21:01:43.139Z,4.53
2018-06-28T21:04:13.396Z,4.20
2018-06-28T21:06:43.305Z,4.67
2018-06-28T21:09:11.338Z,4.50
2018-06-28T21:11:44.390Z,4.13
2018-06-28T21:14:12.386Z,4.70
2018-06-28T21:16:39.344Z,4.70
2018-06-28T21:19:06.270Z,5.27
2018-06-28T21:21:39.286Z,4.50
2018-06-28T21:24:06.246Z,4.10
2018-06-28T21:26:33.214Z,5.00
2018-06-28T21:29:00.175Z,5.33
2018-06-28T21:31:27.163Z,5.07
2018-06-28T21:33:54.094Z,5.50
2018-06-28T21:36:21.042Z,5.90
2018-06-28T21:38:47.994Z,5.37
2018-06-28T21:41:14.922Z,5.53
2018-06-28T21:43:42.962Z,5.10
2018-06-28T21:46:09.926Z,5.27
2018-06-28T21:48:36.834Z,4.77
2018-06-28T21:51:07.099Z,5.77
2018-06-28T21:53:40.246Z,6.30
2018-06-28T21:56:14.203Z,4.63
2018-06-28T21:58:41.158Z,5.27
2018-06-28T22:01:09.147Z,5.50
2018-06-28T22:06:25.007Z,5.27
2018-06-28T22:08:55.515Z,5.90
2018-06-28T22:11:22.464Z,6.07
2018-06-28T22:13:53.489Z,5.13
2018-06-28T22:16:20.378Z,5.70
2018-06-28T22:18:47.350Z,5.43
2018-06-28T22:21:14.899Z,6.00
2018-06-28T22:23:41.878Z,6.77
2018-06-28T22:26:09.058Z,6.23
2018-06-28T22:28:41.866Z,6.00
2018-06-28T22:31:12.779Z,5.93
2018-06-28T22:33:41.466Z,5.87
2018-06-28T22:36:09.978Z,6.50
2018-06-28T22:38:37.941Z,6.63
2018-06-28T22:41:05.360Z,6.30
2018-06-28T22:43:32.288Z,7.77
2018-06-28T22:46:04.557Z,6.00
2018-06-28T22:48:33.423Z,6.17
2018-06-28T22:51:03.490Z,6.27
2018-06-28T22:53:36.382Z,6.33
2018-06-28T22:56:03.350Z,6.27
2018-06-28T22:58:30.274Z,6.40
2018-06-28T23:00:57.323Z,6.63
2018-06-28T23:03:24.938Z,7.37
2018-06-28T23:08:33.699Z,6.47
2018-06-28T23:11:03.622Z,6.50
2018-06-28T23:13:34.689Z,6.50
2018-06-28T23:16:02.462Z,6.50
2018-06-28T23:18:35.367Z,6.70
2018-06-28T23:21:07.327Z,7.30
2018-06-28T23:23:37.254Z,7.07
2018-06-28T23:26:07.182Z,6.40
2018-06-28T23:28:34.127Z,6.93
2018-06-28T23:31:08.270Z,7.17
2018-06-28T23:33:41.361Z,6.43
2018-06-28T23:36:12.535Z,7.20
2018-06-28T23:38:41.423Z,6.90
2018-06-28T23:41:15.363Z,6.90
2018-06-28T23:43:49.890Z,7.40
2018-06-28T23:46:19.822Z,7.53
2018-06-28T23:48:52.818Z,6.73
2018-06-28T23:51:22.734Z,6.73
2018-06-28T23:53:52.674Z,6.90
2018-06-28T23:56:19.663Z,7.23
2018-06-28T23:58:47.508Z,6.80
